Time;durP1;ratioP1;P1;durP2;ratioP2;P2;SDS_P1;SDS_P2;PMS_P1;PMS_P2;Temp;Humidity;BMP_temperature;BMP_pressure;BME280_temperature;BME280_humidity;BME280_pressure;Samples;Min_cycle;Max_cycle;Signal;HPM_P1;HPM_P2
2021/08/09 00:02:10;;;;;;;5.22;1.40;;;;;;;-148.56;100.00;61375.16;5031703;28;20404;-57
2021/08/09 00:05:34;;;;;;;3.55;1.08;;;;;;;-148.56;100.00;61375.16;5055967;28;20472;-56
2021/08/09 00:08:58;;;;;;;3.95;1.13;;;;;;;-148.56;100.00;61375.16;5050542;28;20473;-56
2021/08/09 00:12:22;;;;;;;3.20;0.90;;;;;;;-148.56;100.00;61375.16;5051656;28;20021;-57
2021/08/09 00:15:46;;;;;;;3.03;1.00;;;;;;;-148.56;100.00;61375.16;5041330;28;20066;-58
2021/08/09 00:19:10;;;;;;;6.30;0.98;;;;;;;-148.56;100.00;61375.16;5051056;28;20401;-57
2021/08/09 00:22:34;;;;;;;2.70;1.05;;;;;;;-148.56;100.00;61375.16;5053317;28;20097;-56
2021/08/09 00:25:57;;;;;;;3.17;0.95;;;;;;;-148.56;100.00;61375.16;5053257;28;20060;-55
2021/08/09 00:29:21;;;;;;;4.35;1.02;;;;;;;-148.56;100.00;61375.16;5040993;28;20062;-58
2021/08/09 00:32:45;;;;;;;1.60;0.90;;;;;;;-148.56;100.00;61375.16;5040221;28;20036;-58
2021/08/09 00:36:09;;;;;;;1.38;0.80;;;;;;;-148.56;100.00;61375.16;5053725;28;20028;-57
2021/08/09 00:39:33;;;;;;;2.15;0.95;;;;;;;-148.56;100.00;61375.16;5050106;28;20028;-57
2021/08/09 00:42:57;;;;;;;2.05;0.80;;;;;;;-148.56;100.00;61375.16;5053865;28;20563;-55
2021/08/09 00:46:21;;;;;;;1.55;0.68;;;;;;;-148.56;100.00;61375.16;5053848;28;20051;-53
2021/08/09 00:49:44;;;;;;;1.83;1.05;;;;;;;-148.56;100.00;61375.16;5035269;28;20036;-55
2021/08/09 00:53:08;;;;;;;3.15;0.73;;;;;;;-148.56;100.00;61375.16;5052099;28;20032;-57
2021/08/09 00:56:32;;;;;;;2.13;0.73;;;;;;;-148.56;100.00;61375.16;5042337;28;20037;-55
2021/08/09 00:59:56;;;;;;;2.30;0.98;;;;;;;-148.56;100.00;61375.16;5050085;28;20034;-55
2021/08/09 01:03:20;;;;;;;2.40;0.80;;;;;;;-148.56;100.00;61375.16;5031805;28;20043;-56
2021/08/09 01:06:44;;;;;;;1.67;0.85;;;;;;;-148.56;100.00;61375.16;5057415;28;20029;-56
2021/08/09 01:10:15;;;;;;;2.25;0.75;;;;;;;-148.56;100.00;61375.16;5037046;28;20445;-55
2021/08/09 01:13:55;;;;;;;1.90;0.80;;;;;;;-148.56;100.00;61375.16;5035161;28;20036;-57
2021/08/09 01:17:21;;;;;;;2.15;0.90;;;;;;;-148.56;100.00;61375.16;5046173;28;20372;-59
2021/08/09 01:21:05;;;;;;;3.60;1.38;;;;;;;-148.56;100.00;61375.16;5031611;28;20089;-55
2021/08/09 01:24:39;;;;;;;2.25;0.80;;;;;;;-148.56;100.00;61375.16;5035540;28;20021;-56
2021/08/09 01:28:19;;;;;;;1.88;0.75;;;;;;;-148.56;100.00;61375.16;5014534;28;20059;-58
2021/08/09 01:31:47;;;;;;;2.47;0.85;;;;;;;-148.56;100.00;61375.16;5030126;28;20408;-55
2021/08/09 01:35:11;;;;;;;1.55;0.75;;;;;;;-148.56;100.00;61375.16;5026765;28;20111;-56
2021/08/09 01:38:35;;;;;;;1.48;0.73;;;;;;;-148.56;100.00;61375.16;5055641;28;20450;-56
2021/08/09 01:41:59;;;;;;;1.13;0.77;;;;;;;-148.56;100.00;61375.16;5038426;28;20537;-57
2021/08/09 01:45:23;;;;;;;1.67;0.93;;;;;;;-148.56;100.00;61375.16;5047863;28;20561;-58
2021/08/09 01:48:47;;;;;;;2.75;1.00;;;;;;;-148.56;100.00;61375.16;5047518;28;20039;-55
2021/08/09 01:52:12;;;;;;;3.72;0.82;;;;;;;-148.56;100.00;61375.16;5029154;28;20024;-55
2021/08/09 01:55:36;;;;;;;2.25;1.00;;;;;;;-148.56;100.00;61375.16;5052365;28;20524;-58
2021/08/09 01:59:00;;;;;;;1.60;0.75;;;;;;;-148.56;100.00;61375.16;5030051;28;20028;-57
2021/08/09 02:02:26;;;;;;;2.15;0.63;;;;;;;-148.56;100.00;61375.16;5051769;28;20615;-57
2021/08/09 02:05:50;;;;;;;1.25;0.65;;;;;;;-148.56;100.00;61375.16;5058240;28;20051;-55
2021/08/09 02:09:16;;;;;;;1.73;0.80;;;;;;;-148.56;100.00;61375.16;5038202;28;20032;-55
2021/08/09 02:13:03;;;;;;;2.42;0.73;;;;;;;-148.56;100.00;61375.16;5031087;28;20086;-54
2021/08/09 02:16:36;;;;;;;1.05;0.50;;;;;;;-148.56;100.00;61375.16;5001553;28;20048;-57
2021/08/09 02:20:22;;;;;;;1.05;0.70;;;;;;;-148.56;100.00;61375.16;5038013;28;20037;-57
2021/08/09 02:23:51;;;;;;;2.10;0.98;;;;;;;-148.56;100.00;61375.16;5031680;28;20488;-57
2021/08/09 02:27:16;;;;;;;1.58;0.60;;;;;;;-148.56;100.00;61375.16;5033589;28;20442;-55
2021/08/09 02:30:43;;;;;;;2.03;0.90;;;;;;;-148.56;100.00;61375.16;5053587;28;20093;-57
2021/08/09 02:34:06;;;;;;;1.20;0.70;;;;;;;-148.56;100.00;61375.16;5021459;28;20086;-58
2021/08/09 02:37:30;;;;;;;0.70;0.55;;;;;;;-148.56;100.00;61375.16;5028087;28;20248;-57
2021/08/09 02:40:54;;;;;;;1.92;0.60;;;;;;;-148.56;100.00;61375.16;5013958;28;20097;-57
2021/08/09 02:44:18;;;;;;;1.27;0.85;;;;;;;-148.56;100.00;61375.16;5037496;28;20036;-58
2021/08/09 02:47:42;;;;;;;1.40;0.68;;;;;;;-148.56;100.00;61375.16;5037129;28;20031;-56
2021/08/09 02:51:10;;;;;;;2.35;0.70;;;;;;;-148.56;100.00;61375.16;5035268;28;20082;-57
2021/08/09 02:54:33;;;;;;;0.70;0.70;;;;;;;-148.56;100.00;61375.16;5028708;28;20928;-55
2021/08/09 02:57:59;;;;;;;1.85;0.75;;;;;;;-148.56;100.00;61375.16;5030823;28;20372;-55
2021/08/09 03:01:23;;;;;;;0.57;0.40;;;;;;;-148.56;100.00;61375.16;5042270;28;20138;-56
2021/08/09 03:04:47;;;;;;;0.68;0.50;;;;;;;-148.56;100.00;61375.16;5029078;28;20035;-58
2021/08/09 03:08:11;;;;;;;0.70;0.40;;;;;;;-148.56;100.00;61375.16;5041138;28;20028;-56
2021/08/09 03:11:35;;;;;;;1.05;0.50;;;;;;;-148.56;100.00;61375.16;5042385;28;20032;-56
2021/08/09 03:14:59;;;;;;;0.98;0.52;;;;;;;-148.56;100.00;61375.16;5039657;28;20094;-56
2021/08/09 03:18:23;;;;;;;1.17;0.73;;;;;;;-148.56;100.00;61375.16;5036224;28;20409;-56
2021/08/09 03:21:54;;;;;;;0.95;0.55;;;;;;;-148.56;100.00;61375.16;5053275;28;20032;-56
2021/08/09 03:25:18;;;;;;;1.33;0.50;;;;;;;-148.56;100.00;61375.16;5052737;28;20039;-57
2021/08/09 03:28:42;;;;;;;1.02;0.88;;;;;;;-148.56;100.00;61375.16;5053935;28;20025;-55
2021/08/09 03:32:06;;;;;;;2.42;0.85;;;;;;;-148.56;100.00;61375.16;5055335;28;20039;-56
2021/08/09 03:35:29;;;;;;;2.92;0.60;;;;;;;-148.56;100.00;61375.16;5052754;28;20029;-56
2021/08/09 03:38:53;;;;;;;1.65;0.57;;;;;;;-148.56;100.00;61375.16;5036880;28;20037;-57
2021/08/09 03:42:20;;;;;;;1.75;0.70;;;;;;;-148.56;100.00;61375.16;5057932;28;20029;-56
2021/08/09 03:45:44;;;;;;;2.38;0.73;;;;;;;-148.56;100.00;61375.16;5052739;28;20036;-57
2021/08/09 03:49:09;;;;;;;1.30;0.70;;;;;;;-148.56;100.00;61375.16;5053054;28;20145;-58
2021/08/09 03:52:33;;;;;;;1.80;0.70;;;;;;;-148.56;100.00;61375.16;5034574;28;20032;-56
2021/08/09 03:55:57;;;;;;;1.75;0.80;;;;;;;-148.56;100.00;61375.16;5015184;28;20020;-55
2021/08/09 03:59:21;;;;;;;1.98;0.73;;;;;;;-148.56;100.00;61375.16;5052415;28;20028;-58
2021/08/09 04:02:44;;;;;;;4.97;0.68;;;;;;;-148.56;100.00;61375.16;5052865;28;20408;-55
2021/08/09 04:06:08;;;;;;;1.15;0.63;;;;;;;-148.56;100.00;61375.16;5053953;28;20240;-56
2021/08/09 04:09:32;;;;;;;6.80;0.90;;;;;;;-148.56;100.00;61375.16;5050579;28;20036;-57
2021/08/09 04:12:56;;;;;;;2.83;0.73;;;;;;;-148.56;100.00;61375.16;5052641;28;20376;-56
2021/08/09 04:16:20;;;;;;;1.35;0.75;;;;;;;-148.56;100.00;61375.16;5036859;28;20058;-56
2021/08/09 04:19:44;;;;;;;0.95;0.50;;;;;;;-148.56;100.00;61375.16;5027226;28;20448;-56
2021/08/09 04:23:08;;;;;;;1.52;0.60;;;;;;;-148.56;100.00;61375.16;5051525;28;20123;-57
2021/08/09 04:26:32;;;;;;;1.42;0.82;;;;;;;-148.56;100.00;61375.16;5055519;28;20033;-57
2021/08/09 04:29:56;;;;;;;3.65;0.70;;;;;;;-148.56;100.00;61375.16;5033893;28;20492;-56
2021/08/09 04:33:20;;;;;;;1.33;0.50;;;;;;;-148.56;100.00;61375.16;5049266;28;20117;-55
2021/08/09 04:36:44;;;;;;;3.38;0.70;;;;;;;-148.56;100.00;61375.16;5047111;28;20265;-58
2021/08/09 04:40:08;;;;;;;0.60;0.60;;;;;;;-148.56;100.00;61375.16;5059884;28;20036;-56
2021/08/09 04:43:32;;;;;;;1.48;0.50;;;;;;;-148.56;100.00;61375.16;5037377;28;20037;-56
2021/08/09 04:46:57;;;;;;;2.08;0.47;;;;;;;-148.56;100.00;61375.16;5051049;28;20492;-57
2021/08/09 04:50:21;;;;;;;1.52;0.60;;;;;;;-148.56;100.00;61375.16;5056586;28;20032;-57
2021/08/09 04:53:45;;;;;;;2.05;1.00;;;;;;;-148.56;100.00;61375.16;5055916;28;20098;-56
2021/08/09 04:57:09;;;;;;;0.85;0.50;;;;;;;-148.56;100.00;61375.16;5053116;28;20032;-56
2021/08/09 05:00:33;;;;;;;0.93;0.50;;;;;;;-148.56;100.00;61375.16;5039074;28;20028;-57
2021/08/09 05:03:57;;;;;;;0.98;0.45;;;;;;;-148.56;100.00;61375.16;5054771;28;20025;-57
2021/08/09 05:07:21;;;;;;;0.90;0.40;;;;;;;-148.56;100.00;61375.16;5041032;28;20034;-57
2021/08/09 05:10:44;;;;;;;3.22;0.43;;;;;;;-148.56;100.00;61375.16;5057286;28;20047;-56
2021/08/09 05:14:08;;;;;;;1.67;1.05;;;;;;;-148.56;100.00;61375.16;5059611;28;20645;-57
2021/08/09 05:17:33;;;;;;;1.85;0.70;;;;;;;-148.56;100.00;61375.16;5036584;28;20144;-57
2021/08/09 05:20:57;;;;;;;2.22;0.77;;;;;;;-148.56;100.00;61375.16;5048752;28;20101;-56
2021/08/09 05:24:21;;;;;;;1.17;0.50;;;;;;;-148.56;100.00;61375.16;5037601;28;20036;-56
2021/08/09 05:27:45;;;;;;;2.00;0.70;;;;;;;-148.56;100.00;61375.16;5054844;28;20526;-56
2021/08/09 05:31:09;;;;;;;0.95;0.50;;;;;;;-148.56;100.00;61375.16;5054276;28;20067;-54
2021/08/09 05:34:34;;;;;;;1.52;0.90;;;;;;;-148.56;100.00;61375.16;5056360;28;20025;-56
2021/08/09 05:37:58;;;;;;;0.55;0.40;;;;;;;-148.56;100.00;61375.16;5048029;28;20064;-57
2021/08/09 05:41:22;;;;;;;3.28;0.63;;;;;;;-148.56;100.00;61375.16;5047740;28;20056;-57
2021/08/09 05:44:46;;;;;;;1.58;0.60;;;;;;;-148.56;100.00;61375.16;5051504;28;20059;-57
2021/08/09 05:48:09;;;;;;;2.65;0.63;;;;;;;-148.56;100.00;61375.16;5057584;28;20098;-58
2021/08/09 05:51:38;;;;;;;1.00;0.60;;;;;;;-148.56;100.00;61375.16;5056453;28;20335;-57
2021/08/09 05:55:02;;;;;;;1.38;0.70;;;;;;;-148.56;100.00;61375.16;5057157;28;20024;-58
2021/08/09 05:58:26;;;;;;;0.50;0.40;;;;;;;-148.56;100.00;61375.16;5037478;28;20024;-58
2021/08/09 06:01:50;;;;;;;2.78;0.50;;;;;;;-148.56;100.00;61375.16;5055803;28;20052;-58
2021/08/09 06:05:14;;;;;;;1.13;0.50;;;;;;;-148.56;100.00;61375.16;5051873;28;20309;-58
2021/08/09 06:08:42;;;;;;;1.58;0.60;;;;;;;-148.56;100.00;61375.16;5058992;28;20047;-57
2021/08/09 06:12:07;;;;;;;1.02;0.50;;;;;;;-148.56;100.00;61375.16;5059487;28;20047;-57
2021/08/09 06:15:30;;;;;;;2.33;0.60;;;;;;;-148.56;100.00;61375.16;5053438;28;20396;-57
2021/08/09 06:18:54;;;;;;;3.17;0.77;;;;;;;-148.56;100.00;61375.16;5056614;28;20078;-56
2021/08/09 06:22:18;;;;;;;0.85;0.60;;;;;;;-148.56;100.00;61375.16;5052270;28;20028;-56
2021/08/09 06:25:43;;;;;;;1.55;0.55;;;;;;;-148.56;100.00;61375.16;5057055;28;20024;-58
2021/08/09 06:29:07;;;;;;;5.57;1.05;;;;;;;-148.56;100.00;61375.16;5050675;28;20507;-58
2021/08/09 06:32:31;;;;;;;5.55;0.95;;;;;;;-148.56;100.00;61375.16;5030001;28;20276;-58
2021/08/09 06:35:55;;;;;;;15.02;1.70;;;;;;;-148.56;100.00;61375.16;5025995;28;20452;-58
2021/08/09 06:39:20;;;;;;;6.13;2.35;;;;;;;-148.56;100.00;61375.16;5047755;28;20054;-59
2021/08/09 06:42:44;;;;;;;13.68;3.20;;;;;;;-148.56;100.00;61375.16;5047286;28;20069;-58
2021/08/09 06:46:08;;;;;;;7.63;1.70;;;;;;;-148.56;100.00;61375.16;5049905;28;20112;-58
2021/08/09 06:49:31;;;;;;;5.13;1.85;;;;;;;-148.56;100.00;61375.16;5031583;28;20032;-58
2021/08/09 06:52:55;;;;;;;7.45;1.90;;;;;;;-148.56;100.00;61375.16;5040259;28;20044;-59
2021/08/09 06:56:19;;;;;;;4.05;1.42;;;;;;;-148.56;100.00;61375.16;5045627;28;22890;-58
2021/08/09 06:59:43;;;;;;;4.43;1.58;;;;;;;-148.56;100.00;61375.16;5046794;28;20055;-59
2021/08/09 07:03:07;;;;;;;11.57;1.60;;;;;;;-148.56;100.00;61375.16;5045431;28;20024;-59
2021/08/09 07:06:38;;;;;;;2.38;1.30;;;;;;;-148.56;100.00;61375.16;5029133;28;20024;-60
2021/08/09 07:10:02;;;;;;;3.47;1.52;;;;;;;-148.56;100.00;61375.16;5047230;28;20508;-59
2021/08/09 07:13:26;;;;;;;5.18;1.70;;;;;;;-148.56;100.00;61375.16;5049372;28;20568;-59
2021/08/09 07:16:50;;;;;;;3.13;1.10;;;;;;;-148.56;100.00;61375.16;5026398;28;20038;-59
2021/08/09 07:20:15;;;;;;;3.20;1.15;;;;;;;-148.56;100.00;61375.16;5051751;28;20023;-59
2021/08/09 07:23:42;;;;;;;4.45;1.20;;;;;;;-148.56;100.00;61375.16;5049286;28;20331;-59
2021/08/09 07:27:06;;;;;;;4.10;1.30;;;;;;;-148.56;100.00;61375.16;5044730;28;20027;-57
2021/08/09 07:30:30;;;;;;;4.05;1.40;;;;;;;-148.56;100.00;61375.16;5045967;28;20314;-58
2021/08/09 07:33:54;;;;;;;3.50;1.35;;;;;;;-148.56;100.00;61375.16;5044675;28;20036;-59
2021/08/09 07:37:18;;;;;;;4.90;1.52;;;;;;;-148.56;100.00;61375.16;5043900;28;20536;-59
2021/08/09 07:40:42;;;;;;;3.10;1.17;;;;;;;-148.56;100.00;61375.16;5044738;28;20119;-58
2021/08/09 07:44:06;;;;;;;3.17;1.35;;;;;;;-148.56;100.00;61375.16;5025990;28;20025;-59
2021/08/09 07:47:30;;;;;;;2.15;1.02;;;;;;;-148.56;100.00;61375.16;5026584;28;20036;-58
2021/08/09 07:50:53;;;;;;;4.68;1.17;;;;;;;-148.56;100.00;61375.16;5045079;28;20040;-57
2021/08/09 07:54:20;;;;;;;6.07;1.15;;;;;;;-148.56;100.00;61375.16;5044889;28;20351;-59
2021/08/09 07:57:44;;;;;;;3.55;1.50;;;;;;;-148.56;100.00;61375.16;5025035;28;20028;-58
2021/08/09 08:01:08;;;;;;;3.28;1.15;;;;;;;-148.56;100.00;61375.16;5024211;28;20547;-58
2021/08/09 08:04:32;;;;;;;3.28;1.45;;;;;;;-148.56;100.00;61375.16;5036038;28;20029;-57
2021/08/09 08:07:56;;;;;;;4.55;1.23;;;;;;;-148.56;100.00;61375.16;5045285;28;20778;-57
2021/08/09 08:11:20;;;;;;;2.78;1.50;;;;;;;-148.56;100.00;61375.16;5048540;28;20055;-58
2021/08/09 08:14:43;;;;;;;2.83;1.05;;;;;;;-148.56;100.00;61375.16;5051019;28;20036;-57
2021/08/09 08:18:07;;;;;;;4.65;1.35;;;;;;;-148.56;100.00;61375.16;5050216;28;20407;-58
2021/08/09 08:21:31;;;;;;;2.10;1.00;;;;;;;-148.56;100.00;61375.16;5037893;28;20024;-58
2021/08/09 08:24:55;;;;;;;8.48;1.27;;;;;;;-148.56;100.00;61375.16;5042803;28;20105;-58
2021/08/09 08:28:18;;;;;;;9.50;1.73;;;;;;;-148.56;100.00;61375.16;5038122;28;20294;-58
2021/08/09 08:31:42;;;;;;;3.92;1.30;;;;;;;-148.56;100.00;61375.16;5033701;28;20511;-59
2021/08/09 08:35:09;;;;;;;7.85;1.10;;;;;;;-148.56;100.00;61375.16;5036441;28;20121;-58
2021/08/09 08:38:34;;;;;;;4.10;1.20;;;;;;;-148.56;100.00;61375.16;5036744;28;20020;-58
2021/08/09 08:41:59;;;;;;;1.98;0.88;;;;;;;-148.56;100.00;61375.16;5049789;28;20515;-59
2021/08/09 08:45:23;;;;;;;3.30;1.20;;;;;;;-148.56;100.00;61375.16;5027770;28;20297;-58
2021/08/09 08:48:47;;;;;;;3.17;1.05;;;;;;;-148.56;100.00;61375.16;5050997;28;20032;-58
2021/08/09 08:52:11;;;;;;;4.13;1.40;;;;;;;-148.56;100.00;61375.16;5027404;28;20503;-59
2021/08/09 08:55:35;;;;;;;2.60;1.05;;;;;;;-148.56;100.00;61375.16;5045425;28;20032;-58
2021/08/09 08:58:59;;;;;;;2.92;1.17;;;;;;;-148.56;100.00;61375.16;5045459;28;20107;-59
2021/08/09 09:02:38;;;;;;;3.08;1.02;;;;;;;-148.56;100.00;61375.16;5044652;28;20028;-58
2021/08/09 09:06:09;;;;;;;6.22;1.40;;;;;;;-148.56;100.00;61375.16;5027862;28;20102;-57
2021/08/09 09:09:40;;;;;;;7.70;1.95;;;;;;;-148.56;100.00;61375.16;5056003;28;20385;-57
2021/08/09 09:13:18;;;;;;;9.82;2.78;;;;;;;-148.56;100.00;61375.16;5034779;28;20039;-57
2021/08/09 09:16:50;;;;;;;10.20;2.83;;;;;;;-148.56;100.00;61375.16;5039872;28;20036;-58
2021/08/09 09:20:41;;;;;;;10.88;2.70;;;;;;;-148.56;100.00;61375.16;5053759;28;20032;-59
2021/08/09 09:24:20;;;;;;;8.63;2.50;;;;;;;-148.56;100.00;61375.16;5037658;28;20515;-60
2021/08/09 09:27:50;;;;;;;10.77;2.60;;;;;;;-148.56;100.00;61375.16;5024638;28;20037;-58
2021/08/09 09:31:27;;;;;;;11.65;2.88;;;;;;;-148.56;100.00;61375.16;5058275;28;20395;-56
2021/08/09 09:34:57;;;;;;;10.70;2.47;;;;;;;-148.56;100.00;61375.16;5035309;28;20043;-59
2021/08/09 09:38:27;;;;;;;11.85;2.42;;;;;;;-148.56;100.00;61375.16;5030297;28;20032;-58
2021/08/09 09:41:52;;;;;;;9.18;2.70;;;;;;;-148.56;100.00;61375.16;5035807;28;20028;-58
2021/08/09 09:45:20;;;;;;;15.90;3.40;;;;;;;-148.56;100.00;61375.16;5045617;28;20035;-60
2021/08/09 09:48:44;;;;;;;10.57;2.80;;;;;;;-148.56;100.00;61375.16;5047538;28;20366;-57
2021/08/09 09:52:07;;;;;;;8.63;2.83;;;;;;;-148.56;100.00;61375.16;5052753;28;20028;-59
2021/08/09 09:55:31;;;;;;;11.63;2.67;;;;;;;-148.56;100.00;61375.16;5033561;28;20356;-58
2021/08/09 09:58:56;;;;;;;8.90;2.40;;;;;;;-148.56;100.00;61375.16;5019576;28;20024;-57
2021/08/09 10:02:19;;;;;;;12.07;2.08;;;;;;;-148.56;100.00;61375.16;5030450;28;20037;-59
2021/08/09 10:05:43;;;;;;;7.18;2.20;;;;;;;-148.56;100.00;61375.16;5024981;28;20028;-57
2021/08/09 10:09:10;;;;;;;4.93;2.15;;;;;;;-148.56;100.00;61375.16;5032807;28;20028;-59
2021/08/09 10:12:35;;;;;;;6.07;2.05;;;;;;;-148.56;100.00;61375.16;5021115;28;20071;-58
2021/08/09 10:16:03;;;;;;;8.50;2.25;;;;;;;-148.56;100.00;61375.16;5009149;28;20051;-57
2021/08/09 10:19:28;;;;;;;7.47;2.03;;;;;;;-148.56;100.00;61375.16;4969617;28;20084;-57
2021/08/09 10:22:58;;;;;;;7.05;2.22;;;;;;;-148.56;100.00;61375.16;4970832;28;20836;-59
2021/08/09 10:26:51;;;;;;;7.60;2.10;;;;;;;-148.56;100.00;61375.16;4987302;28;20041;-57
2021/08/09 10:30:21;;;;;;;5.13;2.15;;;;;;;-148.56;100.00;61375.16;5008170;28;20159;-57
2021/08/09 10:33:45;;;;;;;6.22;1.83;;;;;;;-148.56;100.00;61375.16;5019309;28;20048;-60
2021/08/09 10:37:13;;;;;;;6.00;2.15;;;;;;;-148.56;100.00;61375.16;4991554;28;20573;-57
2021/08/09 10:41:08;;;;;;;6.53;1.98;;;;;;;-148.56;100.00;61375.16;4997964;28;20556;-56
2021/08/09 10:44:47;;;;;;;8.57;1.88;;;;;;;-148.56;100.00;61375.16;5011433;28;20489;-57
2021/08/09 10:48:11;;;;;;;6.78;2.15;;;;;;;-148.56;100.00;61375.16;4978540;28;20559;-56
2021/08/09 10:51:50;;;;;;;6.18;1.70;;;;;;;-148.56;100.00;61375.16;5007374;28;20040;-57
2021/08/09 10:55:30;;;;;;;6.35;2.33;;;;;;;-148.56;100.00;61375.16;5019100;28;20077;-57
2021/08/09 10:58:54;;;;;;;5.43;1.85;;;;;;;-148.56;100.00;61375.16;5028370;28;20344;-56
2021/08/09 11:02:19;;;;;;;4.57;1.80;;;;;;;-148.56;100.00;61375.16;5049453;28;20047;-57
2021/08/09 11:06:22;;;;;;;8.27;2.10;;;;;;;-148.56;100.00;61375.16;5039706;28;20523;-59
2021/08/09 11:09:46;;;;;;;3.33;1.55;;;;;;;-148.56;100.00;61375.16;5047533;28;20195;-57
2021/08/09 11:13:13;;;;;;;6.28;1.55;;;;;;;-148.56;100.00;61375.16;5029822;28;20028;-59
2021/08/09 11:16:58;;;;;;;4.82;1.70;;;;;;;-148.56;100.00;61375.16;5052315;28;20215;-57
2021/08/09 11:20:24;;;;;;;4.95;1.60;;;;;;;-148.56;100.00;61375.16;5059141;28;20088;-58
2021/08/09 11:23:56;;;;;;;4.75;1.60;;;;;;;-148.56;100.00;61375.16;5059800;28;20028;-58
2021/08/09 11:27:23;;;;;;;4.90;1.50;;;;;;;-148.56;100.00;61375.16;5062924;28;20042;-56
2021/08/09 11:30:50;;;;;;;4.65;1.50;;;;;;;-148.56;100.00;61375.16;5051322;28;20032;-59
2021/08/09 11:34:17;;;;;;;3.30;1.35;;;;;;;-148.56;100.00;61375.16;5045108;28;20028;-58
2021/08/09 11:37:54;;;;;;;3.95;1.63;;;;;;;-148.56;100.00;61375.16;5040832;28;20028;-58
2021/08/09 11:41:33;;;;;;;2.97;1.40;;;;;;;-148.56;100.00;61375.16;5026581;28;20041;-59
2021/08/09 11:45:25;;;;;;;2.65;1.38;;;;;;;-148.56;100.00;61375.16;5044205;28;20032;-58
2021/08/09 11:48:49;;;;;;;4.20;1.40;;;;;;;-148.56;100.00;61375.16;5036434;28;20396;-58
2021/08/09 11:52:29;;;;;;;8.25;1.60;;;;;;;-148.56;100.00;61375.16;5030336;28;20143;-59
2021/08/09 11:56:16;;;;;;;2.63;1.33;;;;;;;-148.56;100.00;61375.16;5042034;28;20035;-57
2021/08/09 11:59:40;;;;;;;3.60;1.50;;;;;;;-148.56;100.00;61375.16;5035173;28;20745;-59
2021/08/09 12:03:08;;;;;;;5.38;1.30;;;;;;;-148.56;100.00;61375.16;5021417;28;20486;-57
2021/08/09 12:06:32;;;;;;;5.43;1.48;;;;;;;-148.56;100.00;61375.16;5031866;28;20061;-56
2021/08/09 12:09:56;;;;;;;9.23;1.90;;;;;;;-148.56;100.00;61375.16;5042635;28;20192;-58
2021/08/09 12:13:21;;;;;;;8.30;2.38;;;;;;;-148.56;100.00;61375.16;5046961;28;20514;-58
2021/08/09 12:17:11;;;;;;;14.23;4.15;;;;;;;-148.56;100.00;61375.16;5049403;28;20442;-59
2021/08/09 12:20:35;;;;;;;24.15;5.90;;;;;;;-148.56;100.00;61375.16;5045498;28;20036;-59
2021/08/09 12:24:00;;;;;;;18.23;5.60;;;;;;;-148.56;100.00;61375.16;5045504;28;20042;-57
2021/08/09 12:27:28;;;;;;;21.52;5.90;;;;;;;-148.56;100.00;61375.16;5037184;28;20669;-58
2021/08/09 12:31:12;;;;;;;20.95;5.53;;;;;;;-148.56;100.00;61375.16;5027239;28;20029;-58
2021/08/09 12:34:58;;;;;;;14.15;5.25;;;;;;;-148.56;100.00;61375.16;5024715;28;20569;-59
2021/08/09 12:38:22;;;;;;;13.23;4.72;;;;;;;-148.56;100.00;61375.16;5026823;28;20107;-57
2021/08/09 12:41:46;;;;;;;17.15;5.53;;;;;;;-148.56;100.00;61375.16;5051935;28;20036;-57
2021/08/09 12:45:10;;;;;;;13.98;4.35;;;;;;;-148.56;100.00;61375.16;5043487;28;20063;-56
2021/08/09 12:48:34;;;;;;;16.52;4.88;;;;;;;-148.56;100.00;61375.16;5047264;28;20101;-58
2021/08/09 12:51:58;;;;;;;15.23;4.78;;;;;;;-148.56;100.00;61375.16;5051446;28;20028;-60
2021/08/09 12:55:22;;;;;;;12.98;4.22;;;;;;;-148.56;100.00;61375.16;5055107;28;20060;-58
2021/08/09 12:58:46;;;;;;;12.38;4.07;;;;;;;-148.56;100.00;61375.16;5060141;28;20123;-59
2021/08/09 13:02:10;;;;;;;10.52;4.05;;;;;;;-148.56;100.00;61375.16;5040367;28;20098;-59
2021/08/09 13:05:33;;;;;;;10.25;3.80;;;;;;;-148.56;100.00;61375.16;5061348;28;20973;-58
2021/08/09 13:09:00;;;;;;;10.75;3.95;;;;;;;-148.56;100.00;61375.16;5057458;28;20097;-59
2021/08/09 13:12:24;;;;;;;12.43;3.67;;;;;;;-148.56;100.00;61375.16;5040291;28;20029;-57
2021/08/09 13:15:48;;;;;;;12.32;3.15;;;;;;;-148.56;100.00;61375.16;5059509;28;20036;-57
2021/08/09 13:19:12;;;;;;;9.55;3.45;;;;;;;-148.56;100.00;61375.16;5059377;28;20035;-58
2021/08/09 13:22:36;;;;;;;9.25;3.20;;;;;;;-148.56;100.00;61375.16;5050183;28;20658;-59
2021/08/09 13:26:02;;;;;;;10.02;3.22;;;;;;;-148.56;100.00;61375.16;5056546;28;20555;-58
2021/08/09 13:29:28;;;;;;;10.70;3.63;;;;;;;-148.56;100.00;61375.16;5044482;28;20021;-58
2021/08/09 13:32:52;;;;;;;10.85;3.28;;;;;;;-148.56;100.00;61375.16;5057652;28;20105;-58
2021/08/09 13:36:16;;;;;;;9.23;3.30;;;;;;;-148.56;100.00;61375.16;5057512;28;20106;-59
2021/08/09 13:39:40;;;;;;;12.45;3.35;;;;;;;-148.56;100.00;61375.16;5056262;28;20427;-58
2021/08/09 13:43:04;;;;;;;8.30;2.78;;;;;;;-148.56;100.00;61375.16;5057820;28;20115;-59
2021/08/09 13:46:28;;;;;;;10.00;3.22;;;;;;;-148.56;100.00;61375.16;5038029;28;20499;-56
2021/08/09 13:49:51;;;;;;;8.00;3.03;;;;;;;-148.56;100.00;61375.16;5058581;28;20139;-57
2021/08/09 13:53:15;;;;;;;6.40;2.85;;;;;;;-148.56;100.00;61375.16;5039919;28;20407;-57
2021/08/09 13:56:39;;;;;;;7.25;2.90;;;;;;;-148.56;100.00;61375.16;5056846;28;20064;-56
2021/08/09 14:00:03;;;;;;;10.15;3.00;;;;;;;-148.56;100.00;61375.16;5058365;28;20031;-59
2021/08/09 14:03:28;;;;;;;7.55;2.90;;;;;;;-148.56;100.00;61375.16;5060944;28;20032;-57
2021/08/09 14:06:52;;;;;;;10.40;3.50;;;;;;;-148.56;100.00;61375.16;5041513;28;20280;-57
2021/08/09 14:10:16;;;;;;;8.52;2.95;;;;;;;-148.56;100.00;61375.16;5054308;28;20027;-59
2021/08/09 14:13:40;;;;;;;8.27;2.67;;;;;;;-148.56;100.00;61375.16;5041448;28;20032;-59
2021/08/09 14:17:04;;;;;;;6.93;2.53;;;;;;;-148.56;100.00;61375.16;5058968;28;20388;-58
2021/08/09 14:20:28;;;;;;;6.80;2.38;;;;;;;-148.56;100.00;61375.16;5054588;28;20029;-59
2021/08/09 14:23:52;;;;;;;11.30;3.03;;;;;;;-148.56;100.00;61375.16;5057783;28;20032;-60
2021/08/09 14:27:16;;;;;;;9.13;2.35;;;;;;;-148.56;100.00;61375.16;5049807;28;20047;-58
2021/08/09 14:30:41;;;;;;;6.15;2.60;;;;;;;-148.56;100.00;61375.16;5029749;28;20400;-59
2021/08/09 14:34:05;;;;;;;7.07;2.60;;;;;;;-148.56;100.00;61375.16;5053231;28;20421;-59
2021/08/09 14:37:29;;;;;;;6.43;2.60;;;;;;;-148.56;100.00;61375.16;5051072;28;20024;-58
2021/08/09 14:40:53;;;;;;;6.03;2.22;;;;;;;-148.56;100.00;61375.16;5030616;28;20154;-57
2021/08/09 14:44:17;;;;;;;7.07;2.67;;;;;;;-148.56;100.00;61375.16;5059217;28;20033;-59
2021/08/09 14:47:41;;;;;;;8.00;2.50;;;;;;;-148.56;100.00;61375.16;5050220;28;20029;-57
2021/08/09 14:51:05;;;;;;;6.93;2.33;;;;;;;-148.56;100.00;61375.16;5038046;28;20323;-59
2021/08/09 14:54:29;;;;;;;6.57;2.15;;;;;;;-148.56;100.00;61375.16;5053977;28;20151;-58
2021/08/09 14:57:53;;;;;;;6.00;2.33;;;;;;;-148.56;100.00;61375.16;5057607;28;20028;-57
2021/08/09 15:01:17;;;;;;;8.00;2.55;;;;;;;-148.56;100.00;61375.16;5055371;28;20038;-57
2021/08/09 15:04:41;;;;;;;6.25;2.40;;;;;;;-148.56;100.00;61375.16;5053193;28;20594;-57
2021/08/09 15:08:05;;;;;;;4.88;1.92;;;;;;;-148.56;100.00;61375.16;5055051;28;20299;-59
2021/08/09 15:11:29;;;;;;;6.10;2.30;;;;;;;-148.56;100.00;61375.16;5057018;28;20559;-58
2021/08/09 15:14:54;;;;;;;5.63;2.40;;;;;;;-148.56;100.00;61375.16;5057991;28;20127;-59
2021/08/09 15:18:18;;;;;;;4.72;2.17;;;;;;;-148.56;100.00;61375.16;5057965;28;20487;-59
2021/08/09 15:21:42;;;;;;;5.10;1.80;;;;;;;-148.56;100.00;61375.16;5058593;28;20373;-57
2021/08/09 15:25:06;;;;;;;5.25;2.13;;;;;;;-148.56;100.00;61375.16;5044289;28;20436;-59
2021/08/09 15:28:31;;;;;;;4.32;1.80;;;;;;;-148.56;100.00;61375.16;5035518;28;20567;-60
2021/08/09 15:31:55;;;;;;;3.22;1.75;;;;;;;-148.56;100.00;61375.16;5045130;28;20112;-58
2021/08/09 15:35:19;;;;;;;6.32;2.10;;;;;;;-148.56;100.00;61375.16;5055986;28;20028;-57
2021/08/09 15:38:43;;;;;;;4.70;2.00;;;;;;;-148.56;100.00;61375.16;5055481;28;20043;-57